createdAt,value
2019-04-26T00:01:22.897Z,36.25
2019-04-26T00:03:52.784Z,31.35
2019-04-26T00:06:22.800Z,32.15
2019-04-26T00:08:54.278Z,30.62
2019-04-26T00:11:29.029Z,30.00
2019-04-26T00:14:00.583Z,31.33
2019-04-26T00:16:48.166Z,33.67
2019-04-26T00:19:18.141Z,31.90
2019-04-26T00:21:48.267Z,27.98
2019-04-26T00:24:19.400Z,27.05
2019-04-26T00:26:49.349Z,29.52
2019-04-26T00:29:19.243Z,27.77
2019-04-26T00:31:49.102Z,24.25
2019-04-26T00:34:19.629Z,24.60
2019-04-26T00:36:50.439Z,22.98
2019-04-26T00:39:20.391Z,25.45
2019-04-26T00:41:50.313Z,28.20
2019-04-26T00:44:20.909Z,27.93
2019-04-26T00:49:22.062Z,27.73
2019-04-26T00:51:52.562Z,27.02
2019-04-26T00:54:24.358Z,24.07
2019-04-26T00:56:55.462Z,30.00
2019-04-26T00:59:25.985Z,33.67
2019-04-26T01:01:57.415Z,27.27
2019-04-26T01:04:27.188Z,28.62
2019-04-26T01:06:59.533Z,30.35
2019-04-26T01:09:29.283Z,31.42
2019-04-26T01:12:01.910Z,31.10
2019-04-26T01:14:31.778Z,26.60
2019-04-26T01:17:01.623Z,33.33
2019-04-26T01:19:33.310Z,31.42
2019-04-26T01:22:05.958Z,29.12
2019-04-26T01:24:37.700Z,28.50
2019-04-26T01:27:08.604Z,28.07
2019-04-26T01:29:38.487Z,34.40
2019-04-26T01:32:11.372Z,29.57
2019-04-26T01:34:42.201Z,34.55
2019-04-26T01:37:12.661Z,29.90
2019-04-26T01:39:47.085Z,32.20
2019-04-26T01:42:35.268Z,29.00
2019-04-26T01:45:10.538Z,30.02
2019-04-26T01:47:40.711Z,29.92
2019-04-26T01:50:12.148Z,31.97
2019-04-26T01:52:44.546Z,35.58
2019-04-26T01:55:16.033Z,29.48
2019-04-26T01:57:45.921Z,33.50
2019-04-26T02:00:33.961Z,34.10
2019-04-26T02:03:17.662Z,35.83
2019-04-26T02:05:47.523Z,31.77
2019-04-26T02:08:17.397Z,44.88
2019-04-26T02:10:47.275Z,33.50
2019-04-26T02:13:17.243Z,34.18
2019-04-26T02:15:47.085Z,38.67
2019-04-26T02:18:16.928Z,33.50
2019-04-26T02:21:07.671Z,44.67
2019-04-26T02:26:26.644Z,39.95
2019-04-26T02:28:56.629Z,37.80
2019-04-26T02:31:28.783Z,40.60
2019-04-26T02:33:59.136Z,39.10
2019-04-26T02:36:48.072Z,39.95
2019-04-26T02:39:05.752Z,36.05
2019-04-26T02:41:37.222Z,37.48
2019-04-26T02:44:09.951Z,32.30
2019-04-26T02:46:44.455Z,38.33
2019-04-26T02:49:21.855Z,36.48
2019-04-26T02:52:03.442Z,34.35
2019-04-26T02:54:47.742Z,35.92
2019-04-26T02:57:20.560Z,41.05
2019-04-26T02:59:53.254Z,36.08
2019-04-26T03:02:24.093Z,33.05
2019-04-26T03:04:56.776Z,39.53
2019-04-26T03:07:33.850Z,35.63
2019-04-26T03:10:04.646Z,33.58
2019-04-26T03:12:39.474Z,36.77
2019-04-26T03:15:30.363Z,39.70
2019-04-26T03:20:50.907Z,40.52
2019-04-26T03:23:56.187Z,34.88
2019-04-26T03:26:43.512Z,32.58
2019-04-26T03:29:25.096Z,39.83
2019-04-26T03:32:00.793Z,42.25
2019-04-26T03:34:54.041Z,32.78
2019-04-26T03:37:47.234Z,38.95
2019-04-26T03:40:38.953Z,36.95
2019-04-26T03:43:17.270Z,40.35
2019-04-26T03:46:13.934Z,37.90
2019-04-26T03:48:49.177Z,54.03
2019-04-26T03:51:41.054Z,38.05
2019-04-26T03:54:13.848Z,40.12
2019-04-26T03:56:48.303Z,34.80
2019-04-26T03:59:25.605Z,42.93
2019-04-26T04:01:59.985Z,35.35
2019-04-26T04:04:36.959Z,38.28
2019-04-26T04:07:08.923Z,38.23
2019-04-26T04:09:42.867Z,36.48
2019-04-26T04:12:21.765Z,42.85
2019-04-26T04:14:57.631Z,38.38
2019-04-26T04:17:34.776Z,29.02
2019-04-26T04:20:20.644Z,37.73
2019-04-26T04:23:14.502Z,29.82
2019-04-26T04:25:48.822Z,33.60
2019-04-26T04:28:36.267Z,27.75
2019-04-26T04:31:27.130Z,35.98
2019-04-26T04:34:08.336Z,35.30
2019-04-26T04:36:48.844Z,33.38
2019-04-26T04:39:23.640Z,33.05
2019-04-26T04:42:21.580Z,34.75
2019-04-26T04:45:04.638Z,33.70
2019-04-26T04:48:20.463Z,33.90
2019-04-26T04:51:11.471Z,30.97
2019-04-26T04:53:49.900Z,27.98
2019-04-26T04:56:54.132Z,33.05
2019-04-26T04:59:29.679Z,32.85
2019-04-26T05:02:12.835Z,44.05
2019-04-26T05:04:51.081Z,32.85
2019-04-26T05:07:32.671Z,38.42
2019-04-26T05:10:17.095Z,38.17
2019-04-26T05:12:58.819Z,37.95
2019-04-26T05:15:36.083Z,33.80
2019-04-26T05:18:29.967Z,35.92
2019-04-26T05:21:17.640Z,37.88
2019-04-26T05:23:51.415Z,36.17
2019-04-26T05:26:46.011Z,31.30
2019-04-26T05:29:54.111Z,44.55
2019-04-26T05:32:54.730Z,46.28
2019-04-26T05:38:38.573Z,46.68
2019-04-26T05:41:33.862Z,57.62
2019-04-26T05:44:22.981Z,46.65
2019-04-26T05:47:33.609Z,49.93
2019-04-26T05:50:10.840Z,54.25
2019-04-26T05:53:10.602Z,46.48
2019-04-26T05:55:59.853Z,50.00
2019-04-26T05:58:38.245Z,49.90
2019-04-26T06:01:21.533Z,52.90
2019-04-26T06:04:28.681Z,49.33
2019-04-26T06:07:11.588Z,51.00
2019-04-26T06:09:58.624Z,49.08
2019-04-26T06:12:38.718Z,51.23
2019-04-26T06:15:15.884Z,47.53
2019-04-26T06:18:01.859Z,48.28
2019-04-26T06:20:46.639Z,51.95
2019-04-26T06:23:22.090Z,50.65
2019-04-26T06:26:33.692Z,49.60
2019-04-26T06:29:34.961Z,48.33
2019-04-26T06:32:25.648Z,51.20
2019-04-26T06:35:20.132Z,48.52
2019-04-26T06:38:03.999Z,56.37
2019-04-26T06:40:48.542Z,50.38
2019-04-26T06:43:22.390Z,49.50
2019-04-26T06:46:05.479Z,45.40
2019-04-26T06:48:45.649Z,40.33
2019-04-26T06:51:24.836Z,43.55
2019-04-26T06:53:58.679Z,40.70
2019-04-26T06:56:48.227Z,44.90
2019-04-26T06:59:40.462Z,40.77
2019-04-26T07:02:19.282Z,31.52
2019-04-26T07:05:00.780Z,37.00
2019-04-26T07:07:33.514Z,31.25
2019-04-26T07:10:06.371Z,30.25
2019-04-26T07:12:40.686Z,31.52
2019-04-26T07:15:45.106Z,28.80
2019-04-26T07:18:23.882Z,31.77
2019-04-26T07:20:58.302Z,31.75
2019-04-26T07:23:47.438Z,30.27
2019-04-26T07:26:36.525Z,27.73
2019-04-26T07:29:31.527Z,24.07
2019-04-26T07:32:28.198Z,29.40
2019-04-26T07:35:30.087Z,29.40
2019-04-26T07:38:09.069Z,25.92
2019-04-26T07:40:52.318Z,28.35
2019-04-26T07:43:48.938Z,33.67
2019-04-26T07:46:54.799Z,29.02
2019-04-26T07:50:00.473Z,23.35
2019-04-26T07:52:51.143Z,26.07
2019-04-26T07:55:47.951Z,27.17
2019-04-26T07:58:42.414Z,28.27
2019-04-26T08:01:41.541Z,23.52
2019-04-26T08:04:18.476Z,23.12
2019-04-26T08:07:10.423Z,29.63
2019-04-26T08:09:46.184Z,20.48
2019-04-26T08:12:18.725Z,23.15
2019-04-26T08:14:58.630Z,24.02
2019-04-26T08:17:35.553Z,21.27
2019-04-26T08:20:13.974Z,22.75
2019-04-26T08:22:46.950Z,32.10
2019-04-26T08:25:19.532Z,26.73
2019-04-26T08:27:53.449Z,25.02
2019-04-26T08:30:25.236Z,20.62
2019-04-26T08:32:57.970Z,22.02
2019-04-26T08:35:30.432Z,15.63
2019-04-26T08:38:07.960Z,21.95
2019-04-26T08:40:35.565Z,24.15
2019-04-26T08:43:27.307Z,29.32
2019-04-26T08:46:03.220Z,25.08
2019-04-26T08:48:46.721Z,19.52
2019-04-26T08:51:20.646Z,19.70
2019-04-26T08:53:53.142Z,23.12
2019-04-26T08:56:28.370Z,16.70
2019-04-26T08:59:01.140Z,17.82
2019-04-26T09:01:41.995Z,13.75
2019-04-26T09:04:15.665Z,15.83
2019-04-26T09:07:07.854Z,16.85
2019-04-26T09:09:41.512Z,17.42
2019-04-26T09:12:22.850Z,18.85
2019-04-26T09:14:48.800Z,23.10
2019-04-26T09:17:18.704Z,19.27
2019-04-26T09:19:48.845Z,15.18
2019-04-26T09:22:32.263Z,13.38
2019-04-26T09:25:03.737Z,19.00
2019-04-26T09:27:35.420Z,16.97
2019-04-26T09:30:11.360Z,15.90
2019-04-26T09:33:02.007Z,19.55
2019-04-26T09:35:30.729Z,15.20
2019-04-26T09:38:00.649Z,17.37
2019-04-26T09:40:30.763Z,14.70
2019-04-26T09:43:20.393Z,21.17
2019-04-26T09:46:08.033Z,18.12
2019-04-26T09:48:57.804Z,18.07
2019-04-26T09:51:27.712Z,16.62
2019-04-26T09:53:58.543Z,17.92
2019-04-26T09:56:28.386Z,16.27
2019-04-26T09:59:01.533Z,15.10
2019-04-26T10:01:30.462Z,21.85
2019-04-26T10:04:00.279Z,17.15
2019-04-26T10:06:30.998Z,18.75
2019-04-26T10:09:02.495Z,15.63
2019-04-26T10:11:35.513Z,14.65
2019-04-26T10:14:06.915Z,19.90
2019-04-26T10:16:44.493Z,20.82
2019-04-26T10:19:14.763Z,22.10
2019-04-26T10:21:44.592Z,24.47
2019-04-26T10:24:14.362Z,15.95
2019-04-26T10:26:44.303Z,19.60
2019-04-26T10:29:14.124Z,21.23
2019-04-26T10:31:47.532Z,21.30
2019-04-26T10:34:15.723Z,20.05
2019-04-26T10:36:45.609Z,21.35
2019-04-26T10:39:17.063Z,17.80
2019-04-26T10:41:46.964Z,24.50
2019-04-26T10:44:16.801Z,26.05
2019-04-26T10:46:55.301Z,19.20
2019-04-26T10:49:37.397Z,27.45
2019-04-26T10:52:12.052Z,27.85
2019-04-26T10:54:46.006Z,22.37
2019-04-26T10:57:17.256Z,19.35
2019-04-26T10:59:51.660Z,21.40
2019-04-26T11:02:21.608Z,23.60
2019-04-26T11:04:51.433Z,20.65
2019-04-26T11:07:21.212Z,18.05
2019-04-26T11:09:51.138Z,16.82
2019-04-26T11:12:21.410Z,23.45
2019-04-26T11:14:53.329Z,17.12
2019-04-26T11:17:22.964Z,18.65
2019-04-26T11:19:52.851Z,19.37
2019-04-26T11:22:29.370Z,17.60
2019-04-26T11:24:55.091Z,18.65
2019-04-26T11:27:25.003Z,21.77
2019-04-26T11:29:55.028Z,25.08
2019-04-26T11:32:24.935Z,19.40
2019-04-26T11:34:58.755Z,16.02
2019-04-26T11:37:26.452Z,23.52
2019-04-26T11:39:56.289Z,19.42
2019-04-26T11:42:26.222Z,18.20
2019-04-26T11:45:05.753Z,18.25
2019-04-26T11:47:27.725Z,20.15
2019-04-26T11:49:57.704Z,25.68
2019-04-26T11:52:27.602Z,21.02
2019-04-26T11:54:57.522Z,23.73
2019-04-26T11:57:27.420Z,25.23
2019-04-26T11:59:57.333Z,21.62
2019-04-26T12:02:27.296Z,19.57
2019-04-26T12:07:38.356Z,19.73
2019-04-26T12:10:11.338Z,22.13
2019-04-26T12:12:43.084Z,23.57
2019-04-26T12:15:12.963Z,25.97
2019-04-26T12:20:12.010Z,23.80
2019-04-26T12:22:43.332Z,21.52
2019-04-26T12:25:13.507Z,21.33
2019-04-26T12:27:43.531Z,17.95
2019-04-26T12:32:42.956Z,29.65
2019-04-26T12:35:15.484Z,23.27
2019-04-26T12:37:45.376Z,21.07
2019-04-26T12:42:47.344Z,18.85
2019-04-26T12:45:23.716Z,20.92
2019-04-26T12:47:57.938Z,23.20
2019-04-26T12:50:29.492Z,18.65
2019-04-26T12:52:59.415Z,21.68
2019-04-26T12:55:29.344Z,21.90
2019-04-26T12:57:59.177Z,18.17
2019-04-26T13:00:33.194Z,20.72
2019-04-26T13:03:03.397Z,18.87
2019-04-26T13:05:33.301Z,25.85
2019-04-26T13:08:03.267Z,19.75
2019-04-26T13:10:35.605Z,18.07
2019-04-26T13:13:07.989Z,20.00
2019-04-26T13:16:01.142Z,19.10
2019-04-26T13:18:31.838Z,17.75
2019-04-26T13:21:03.128Z,21.50
2019-04-26T13:23:36.747Z,14.38
2019-04-26T13:26:06.761Z,24.27
2019-04-26T13:28:36.572Z,15.83
2019-04-26T13:31:06.408Z,20.92
2019-04-26T13:33:36.327Z,16.15
2019-04-26T13:36:06.338Z,19.42
2019-04-26T13:38:39.294Z,13.60
2019-04-26T13:41:07.854Z,15.45
2019-04-26T13:43:37.694Z,19.27
2019-04-26T13:46:18.231Z,15.65
2019-04-26T13:49:05.879Z,20.32
2019-04-26T13:51:37.406Z,20.45
2019-04-26T13:54:07.304Z,16.73
2019-04-26T13:56:37.584Z,20.17
2019-04-26T13:59:07.666Z,16.30
2019-04-26T14:01:37.510Z,17.32
2019-04-26T14:04:08.915Z,23.77
2019-04-26T14:06:40.794Z,16.02
2019-04-26T14:09:12.067Z,24.02
2019-04-26T14:11:42.317Z,20.80
2019-04-26T14:14:12.233Z,19.73
2019-04-26T14:16:42.167Z,24.07
2019-04-26T14:19:15.564Z,16.40
2019-04-26T14:21:43.832Z,26.70
2019-04-26T14:24:19.656Z,18.52
2019-04-26T14:26:51.450Z,17.52
2019-04-26T14:29:21.333Z,21.65
2019-04-26T14:31:53.022Z,19.10
2019-04-26T14:34:23.154Z,23.30
2019-04-26T14:37:05.565Z,15.95
2019-04-26T14:39:38.216Z,21.62
2019-04-26T14:41:57.032Z,17.80
2019-04-26T14:44:31.362Z,18.12
2019-04-26T14:47:12.699Z,17.52
2019-04-26T14:49:38.911Z,18.00
2019-04-26T14:52:02.441Z,15.48
2019-04-26T14:54:32.388Z,19.55
2019-04-26T14:57:07.696Z,21.05
2019-04-26T14:59:52.813Z,16.70
2019-04-26T15:02:36.087Z,17.77
2019-04-26T15:05:24.475Z,18.82
2019-04-26T15:07:54.370Z,16.87
2019-04-26T15:10:25.891Z,19.27
2019-04-26T15:13:11.636Z,16.70
2019-04-26T15:15:32.073Z,19.07
2019-04-26T15:17:59.617Z,20.68
2019-04-26T15:20:30.430Z,20.70
2019-04-26T15:23:00.276Z,21.65
2019-04-26T15:25:30.127Z,23.32
2019-04-26T15:28:00.054Z,26.73
2019-04-26T15:30:34.269Z,25.43
2019-04-26T15:33:03.130Z,19.02
2019-04-26T15:35:35.818Z,26.77
2019-04-26T15:38:06.188Z,22.10
2019-04-26T15:40:54.103Z,22.67
2019-04-26T15:43:32.742Z,18.40
2019-04-26T15:46:17.310Z,22.10
2019-04-26T15:48:50.352Z,22.05
2019-04-26T15:51:24.456Z,22.13
2019-04-26T15:53:53.642Z,24.27
2019-04-26T15:56:23.571Z,22.00
2019-04-26T15:58:53.448Z,20.90
2019-04-26T16:01:23.342Z,22.40
2019-04-26T16:03:54.230Z,22.85
2019-04-26T16:09:58.327Z,22.80
2019-04-26T16:12:29.122Z,21.45
2019-04-26T16:15:02.448Z,23.38
2019-04-26T16:17:36.319Z,22.30
2019-04-26T16:20:13.711Z,20.12
2019-04-26T16:22:43.709Z,20.15
2019-04-26T16:25:15.087Z,25.20
2019-04-26T16:27:44.919Z,33.80
2019-04-26T16:30:37.511Z,23.15
2019-04-26T16:33:07.665Z,28.65
2019-04-26T16:35:44.824Z,26.80
2019-04-26T16:41:09.042Z,26.70
2019-04-26T16:43:44.690Z,28.23
2019-04-26T16:48:47.630Z,38.38
2019-04-26T16:51:17.573Z,28.50
2019-04-26T16:54:05.307Z,27.17
2019-04-26T16:56:25.742Z,26.00
2019-04-26T16:58:54.832Z,22.00
2019-04-26T17:00:45.680Z,24.92
2019-04-26T17:01:23.771Z,30.82
2019-04-26T17:03:53.766Z,26.40
2019-04-26T17:06:23.657Z,27.22
2019-04-26T17:09:00.857Z,26.80
2019-04-26T17:11:25.254Z,28.00
2019-04-26T17:13:57.032Z,25.72
2019-04-26T17:16:29.656Z,23.87
2019-04-26T17:19:01.610Z,28.40
2019-04-26T17:21:35.852Z,33.48
2019-04-26T17:24:23.180Z,29.67
2019-04-26T17:26:57.475Z,20.17
2019-04-26T17:29:27.924Z,25.25
2019-04-26T17:34:29.124Z,28.35
2019-04-26T17:37:00.105Z,32.70
2019-04-26T17:39:32.090Z,20.77
2019-04-26T17:42:02.040Z,27.15
2019-04-26T17:44:34.090Z,23.18
2019-04-26T17:47:03.564Z,23.40
2019-04-26T17:49:34.697Z,28.98
2019-04-26T17:52:06.237Z,24.32
2019-04-26T17:54:45.930Z,29.40
2019-04-26T17:57:08.872Z,28.10
2019-04-26T17:59:45.286Z,26.73
2019-04-26T18:02:24.112Z,30.95
2019-04-26T18:04:43.228Z,30.55
2019-04-26T18:07:34.634Z,28.67
2019-04-26T18:09:47.023Z,25.75
2019-04-26T18:12:16.850Z,25.95
2019-04-26T18:14:46.765Z,30.05
2019-04-26T18:17:33.056Z,24.27
2019-04-26T18:20:19.114Z,33.30
2019-04-26T18:23:10.080Z,32.40
2019-04-26T18:25:41.292Z,36.42
2019-04-26T18:28:14.591Z,37.08
2019-04-26T18:30:46.194Z,33.45
2019-04-26T18:33:13.539Z,38.53
2019-04-26T18:35:45.171Z,33.18
2019-04-26T18:38:15.960Z,41.63
2019-04-26T18:41:00.138Z,43.48
2019-04-26T18:43:23.610Z,38.70
2019-04-26T18:46:12.823Z,36.10
2019-04-26T18:48:44.252Z,36.08
2019-04-26T18:51:14.047Z,47.75
2019-04-26T18:54:05.107Z,32.33
2019-04-26T18:56:39.459Z,36.83
2019-04-26T18:59:11.518Z,34.50
2019-04-26T19:01:42.164Z,49.67
2019-04-26T19:04:14.908Z,45.73
2019-04-26T19:06:43.582Z,41.48
2019-04-26T19:09:15.667Z,51.48
2019-04-26T19:11:48.631Z,47.45
2019-04-26T19:14:34.930Z,40.98
2019-04-26T19:17:09.229Z,50.10
2019-04-26T19:19:49.435Z,37.33
2019-04-26T19:22:20.876Z,38.98
2019-04-26T19:24:54.184Z,43.38
2019-04-26T19:27:26.560Z,33.78
2019-04-26T19:29:55.558Z,38.25
2019-04-26T19:32:25.530Z,32.83
2019-04-26T19:34:55.351Z,29.95
2019-04-26T19:37:25.226Z,30.73
2019-04-26T19:39:55.115Z,33.33
2019-04-26T19:42:27.046Z,27.22
2019-04-26T19:45:11.702Z,36.10
2019-04-26T19:47:35.468Z,28.90
2019-04-26T19:50:23.294Z,28.50
2019-04-26T19:52:57.525Z,24.75
2019-04-26T19:55:32.018Z,27.98
2019-04-26T19:58:03.517Z,20.65
2019-04-26T20:00:33.501Z,30.68
2019-04-26T20:03:03.357Z,22.95
2019-04-26T20:05:36.328Z,26.80
2019-04-26T20:08:06.101Z,32.13
2019-04-26T20:10:40.434Z,23.67
2019-04-26T20:13:14.893Z,24.12
2019-04-26T20:15:40.224Z,26.55
2019-04-26T20:18:12.077Z,24.80
2019-04-26T20:20:41.580Z,22.20
2019-04-26T20:23:12.364Z,22.85
2019-04-26T20:25:46.840Z,21.90
2019-04-26T20:28:16.723Z,20.70
2019-04-26T20:30:57.891Z,19.05
2019-04-26T20:33:26.727Z,23.30
2019-04-26T20:36:01.021Z,19.30
2019-04-26T20:38:28.870Z,25.95
2019-04-26T20:40:58.717Z,20.90
2019-04-26T20:43:28.644Z,18.50
2019-04-26T20:46:13.779Z,19.12
2019-04-26T20:48:33.176Z,17.00
2019-04-26T20:51:06.471Z,17.00
2019-04-26T20:53:40.124Z,22.30
2019-04-26T20:56:09.812Z,21.75
2019-04-26T20:58:42.334Z,21.82
2019-04-26T21:01:12.517Z,22.67
2019-04-26T21:03:44.612Z,18.25
2019-04-26T21:06:13.112Z,16.07
2019-04-26T21:08:43.068Z,18.02
2019-04-26T21:11:13.637Z,16.80
2019-04-26T21:13:43.692Z,22.00
2019-04-26T21:16:15.524Z,12.37
2019-04-26T21:18:45.256Z,20.02
2019-04-26T21:21:16.179Z,17.48
2019-04-26T21:23:47.809Z,18.60
2019-04-26T21:26:29.134Z,17.40
2019-04-26T21:29:06.603Z,14.28
2019-04-26T21:31:47.060Z,23.22
2019-04-26T21:34:24.374Z,17.30
2019-04-26T21:37:04.647Z,18.85
2019-04-26T21:39:39.377Z,16.80
2019-04-26T21:42:11.797Z,14.50
2019-04-26T21:44:44.673Z,15.98
2019-04-26T21:47:13.554Z,20.27
2019-04-26T21:49:43.370Z,23.65
2019-04-26T21:52:13.731Z,19.12
2019-04-26T21:54:44.546Z,15.18
2019-04-26T21:57:18.359Z,16.10
2019-04-26T21:59:47.751Z,17.10
2019-04-26T22:02:18.384Z,15.80
2019-04-26T22:07:17.271Z,20.57
2019-04-26T22:09:48.748Z,27.67
2019-04-26T22:12:18.669Z,20.23
2019-04-26T22:14:50.750Z,21.95
2019-04-26T22:17:24.281Z,18.52
2019-04-26T22:19:55.885Z,14.58
2019-04-26T22:22:27.358Z,13.95
2019-04-26T22:24:58.769Z,21.48
2019-04-26T22:27:28.593Z,14.28
2019-04-26T22:29:58.417Z,17.02
2019-04-26T22:32:28.326Z,17.92
2019-04-26T22:34:58.181Z,14.00
2019-04-26T22:37:30.118Z,17.42
2019-04-26T22:39:59.676Z,16.73
2019-04-26T22:42:33.017Z,16.17
2019-04-26T22:45:13.511Z,11.95
2019-04-26T22:47:47.613Z,15.00
2019-04-26T22:50:20.928Z,17.75
2019-04-26T22:52:51.485Z,15.38
2019-04-26T22:55:24.041Z,11.88
2019-04-26T22:57:53.113Z,16.02
2019-04-26T23:00:28.077Z,17.12
2019-04-26T23:02:58.223Z,14.38
2019-04-26T23:05:30.576Z,14.07
2019-04-26T23:08:00.932Z,14.18
2019-04-26T23:10:34.100Z,15.05
2019-04-26T23:13:13.139Z,13.58
2019-04-26T23:16:05.245Z,17.65
2019-04-26T23:18:49.835Z,13.78
2019-04-26T23:21:33.920Z,18.30
2019-04-26T23:24:04.862Z,19.52
2019-04-26T23:26:37.445Z,15.75
2019-04-26T23:29:08.697Z,18.10
2019-04-26T23:31:41.626Z,16.85
2019-04-26T23:34:09.380Z,20.23
2019-04-26T23:36:39.365Z,17.95
2019-04-26T23:39:12.124Z,15.70
2019-04-26T23:41:41.656Z,20.27
2019-04-26T23:44:13.218Z,16.65
2019-04-26T23:46:43.342Z,14.87
2019-04-26T23:49:14.462Z,19.27
2019-04-26T23:51:45.878Z,19.82
2019-04-26T23:54:15.789Z,16.95
2019-04-26T23:56:45.649Z,13.38
2019-04-26T23:59:20.756Z,17.62
